createdAt,value
2023-08-08T00:04:25.500Z,13.19
2023-08-08T00:09:26.793Z,13.13
2023-08-08T00:14:28.030Z,12.93
2023-08-08T00:19:29.264Z,12.82
2023-08-08T00:24:30.567Z,12.87
2023-08-08T00:29:31.803Z,12.81
2023-08-08T00:34:33.173Z,12.78
2023-08-08T00:39:34.480Z,12.78
2023-08-08T00:44:35.786Z,12.61
2023-08-08T00:49:37.005Z,12.59
2023-08-08T00:54:38.253Z,12.59
2023-08-08T00:59:39.483Z,12.46
2023-08-08T01:04:40.970Z,12.65
2023-08-08T01:09:42.254Z,12.74
2023-08-08T01:14:43.492Z,12.52
2023-08-08T01:19:44.712Z,12.61
2023-08-08T01:24:45.916Z,12.62
2023-08-08T01:29:47.132Z,12.62
2023-08-08T01:34:48.373Z,12.72
2023-08-08T01:39:49.668Z,12.65
2023-08-08T01:44:50.958Z,12.84
2023-08-08T01:49:52.371Z,12.70
2023-08-08T01:54:53.655Z,12.71
2023-08-08T01:59:54.858Z,12.69
2023-08-08T02:04:56.056Z,12.76
2023-08-08T02:09:57.300Z,12.86
2023-08-08T02:14:58.515Z,12.90
2023-08-08T02:19:59.779Z,13.04
2023-08-08T02:25:01.099Z,13.10
2023-08-08T02:30:02.398Z,13.08
2023-08-08T02:35:03.647Z,13.22
2023-08-08T02:40:05.842Z,13.07
2023-08-08T02:45:07.071Z,13.07
2023-08-08T02:50:08.323Z,12.92
2023-08-08T02:55:09.546Z,13.00
2023-08-08T03:00:12.365Z,12.90
2023-08-08T03:05:13.649Z,13.02
2023-08-08T03:10:14.929Z,13.10
2023-08-08T03:15:16.346Z,12.99
2023-08-08T03:20:17.656Z,13.08
2023-08-08T03:25:19.023Z,13.11
2023-08-08T03:30:20.232Z,13.04
2023-08-08T03:35:21.482Z,13.05
2023-08-08T03:40:22.742Z,13.25
2023-08-08T03:45:24.011Z,13.26
2023-08-08T03:50:25.298Z,13.14
2023-08-08T03:55:26.622Z,13.29
2023-08-08T04:00:27.946Z,13.15
2023-08-08T04:05:29.221Z,13.14
2023-08-08T04:10:30.489Z,13.03
2023-08-08T04:15:31.708Z,13.19
2023-08-08T04:20:32.967Z,13.02
2023-08-08T04:25:34.245Z,13.00
2023-08-08T04:30:36.358Z,13.13
2023-08-08T04:35:37.705Z,13.15
2023-08-08T04:40:39.506Z,13.17
2023-08-08T04:45:40.990Z,13.09
2023-08-08T04:50:42.539Z,13.40
2023-08-08T04:55:43.812Z,13.68
2023-08-08T05:00:45.098Z,13.69
2023-08-08T05:05:46.333Z,13.36
2023-08-08T05:10:47.830Z,13.37
2023-08-08T05:15:49.199Z,13.50
2023-08-08T05:20:50.443Z,13.39
2023-08-08T05:25:51.665Z,13.51
2023-08-08T05:30:52.976Z,13.50
2023-08-08T05:35:54.198Z,13.55
2023-08-08T05:40:55.456Z,13.71
2023-08-08T05:45:56.720Z,14.01
2023-08-08T05:50:59.809Z,13.74
2023-08-08T05:56:01.141Z,14.06
2023-08-08T06:01:02.554Z,13.98
2023-08-08T06:06:30.349Z,14.02
2023-08-08T06:11:31.585Z,13.98
2023-08-08T06:16:33.149Z,14.05
2023-08-08T06:21:34.474Z,14.21
2023-08-08T06:26:35.696Z,14.47
2023-08-08T06:31:37.117Z,14.68
2023-08-08T06:36:38.387Z,14.89
2023-08-08T06:41:39.661Z,15.04
2023-08-08T06:46:40.969Z,15.14
2023-08-08T06:51:42.207Z,15.30
2023-08-08T06:56:43.470Z,15.19
2023-08-08T07:01:44.772Z,15.81
2023-08-08T07:06:46.209Z,15.72
2023-08-08T07:12:12.410Z,16.03
2023-08-08T07:17:13.188Z,16.24
2023-08-08T07:22:14.663Z,16.40
2023-08-08T07:27:16.120Z,16.85
2023-08-08T07:32:17.376Z,16.83
2023-08-08T07:37:21.608Z,16.79
2023-08-08T07:42:22.876Z,17.08
2023-08-08T07:47:24.248Z,17.15
2023-08-08T07:52:25.530Z,16.95
2023-08-08T07:57:26.825Z,17.06
2023-08-08T08:02:28.259Z,17.23
2023-08-08T08:07:29.608Z,17.29
2023-08-08T08:12:30.861Z,16.83
2023-08-08T08:17:32.323Z,16.68
2023-08-08T08:22:36.893Z,16.65
2023-08-08T08:27:38.103Z,16.23
2023-08-08T08:32:39.526Z,16.68
2023-08-08T08:37:40.830Z,17.09
2023-08-08T08:42:42.141Z,17.24
2023-08-08T08:47:43.727Z,17.68
2023-08-08T08:52:45.680Z,17.74
2023-08-08T08:57:47.116Z,17.90
2023-08-08T09:02:48.432Z,18.00
2023-08-08T09:07:49.855Z,18.36
2023-08-08T09:12:51.229Z,18.37
2023-08-08T09:17:52.589Z,18.57
2023-08-08T09:22:53.816Z,19.07
2023-08-08T09:27:55.097Z,19.00
2023-08-08T09:32:56.345Z,19.38
2023-08-08T09:37:57.718Z,19.66
2023-08-08T09:43:02.076Z,19.38
2023-08-08T09:48:08.476Z,19.57
2023-08-08T09:53:09.938Z,20.02
2023-08-08T09:58:11.325Z,19.63
2023-08-08T10:03:12.596Z,18.65
2023-08-08T10:08:13.947Z,19.12
2023-08-08T10:13:15.179Z,19.19
2023-08-08T10:18:16.512Z,19.34
2023-08-08T10:23:17.726Z,19.18
2023-08-08T10:28:26.673Z,19.22
2023-08-08T10:33:29.081Z,19.60
2023-08-08T10:38:30.372Z,19.75
2023-08-08T10:43:31.671Z,19.88
2023-08-08T10:48:32.893Z,20.25
2023-08-08T10:53:34.171Z,20.13
2023-08-08T10:58:35.387Z,20.17
2023-08-08T11:03:36.645Z,20.80
2023-08-08T11:08:39.254Z,20.48
2023-08-08T11:13:40.566Z,20.85
2023-08-08T11:18:41.845Z,20.67
2023-08-08T11:23:43.080Z,20.39
2023-08-08T11:28:44.332Z,20.82
2023-08-08T11:33:45.580Z,20.59
2023-08-08T11:38:46.797Z,20.25
2023-08-08T11:43:49.912Z,20.58
2023-08-08T11:48:51.219Z,20.81
2023-08-08T11:53:52.710Z,20.42
2023-08-08T11:58:54.042Z,20.56
2023-08-08T12:03:55.474Z,20.82
2023-08-08T12:08:56.999Z,20.66
2023-08-08T12:13:58.291Z,21.54
2023-08-08T12:18:59.557Z,21.91
2023-08-08T12:24:00.837Z,22.22
2023-08-08T12:29:02.090Z,22.79
2023-08-08T12:34:03.380Z,22.72
2023-08-08T12:39:05.886Z,22.48
2023-08-08T12:44:08.448Z,21.98
2023-08-08T12:49:09.742Z,21.94
2023-08-08T12:54:11.212Z,22.25
2023-08-08T12:59:12.452Z,22.33
2023-08-08T13:04:19.502Z,22.00
2023-08-08T13:09:21.590Z,22.21
2023-08-08T13:14:22.805Z,22.10
2023-08-08T13:19:26.082Z,22.44
2023-08-08T13:24:27.468Z,22.92
2023-08-08T13:29:28.673Z,22.97
2023-08-08T13:34:30.021Z,22.59
2023-08-08T13:39:31.237Z,22.61
2023-08-08T13:44:32.514Z,23.66
2023-08-08T13:49:33.900Z,22.80
2023-08-08T13:54:40.049Z,22.25
2023-08-08T13:59:44.247Z,22.22
2023-08-08T14:04:45.551Z,22.26
2023-08-08T14:09:46.757Z,22.93
2023-08-08T14:14:48.082Z,22.97
2023-08-08T14:19:49.560Z,23.19
2023-08-08T14:24:50.989Z,22.58
2023-08-08T14:29:52.335Z,22.35
2023-08-08T14:34:54.187Z,22.43
2023-08-08T14:39:55.612Z,22.09
2023-08-08T14:44:57.086Z,22.50
2023-08-08T14:49:58.399Z,23.45
2023-08-08T14:54:59.610Z,23.48
2023-08-08T15:00:02.075Z,22.86
2023-08-08T15:05:04.825Z,22.70
2023-08-08T15:10:06.513Z,23.08
2023-08-08T15:15:07.834Z,22.66
2023-08-08T15:20:09.090Z,22.59
2023-08-08T15:25:10.397Z,23.33
2023-08-08T15:30:11.691Z,23.67
2023-08-08T15:35:13.041Z,22.75
2023-08-08T15:40:14.262Z,22.23
2023-08-08T15:45:15.495Z,21.87
2023-08-08T15:50:16.723Z,22.59
2023-08-08T15:55:18.132Z,22.96
2023-08-08T16:00:20.434Z,22.97
2023-08-08T16:05:21.752Z,22.73
2023-08-08T16:10:23.178Z,22.67
2023-08-08T16:15:26.351Z,22.19
2023-08-08T16:20:27.614Z,22.29
2023-08-08T16:25:28.850Z,21.80
2023-08-08T16:30:30.199Z,22.09
2023-08-08T16:35:31.465Z,22.27
2023-08-08T16:40:32.682Z,22.32
2023-08-08T16:45:33.960Z,22.37
2023-08-08T16:50:35.194Z,22.37
2023-08-08T16:55:36.463Z,21.94
2023-08-08T17:00:37.749Z,21.82
2023-08-08T17:05:39.054Z,21.68
2023-08-08T17:10:41.931Z,21.84
2023-08-08T17:15:43.248Z,21.51
2023-08-08T17:20:44.907Z,21.18
2023-08-08T17:25:46.153Z,21.49
2023-08-08T17:30:47.405Z,21.77
2023-08-08T17:35:48.729Z,22.20
2023-08-08T17:40:50.074Z,21.77
2023-08-08T17:45:51.430Z,21.85
2023-08-08T17:50:52.667Z,22.26
2023-08-08T17:55:53.958Z,22.26
2023-08-08T18:00:55.164Z,22.01
2023-08-08T18:05:56.427Z,21.87
2023-08-08T18:10:57.631Z,21.66
2023-08-08T18:16:01.141Z,21.18
2023-08-08T18:21:02.841Z,21.21
2023-08-08T18:26:04.172Z,21.03
2023-08-08T18:31:05.484Z,20.51
2023-08-08T18:36:08.019Z,20.36
2023-08-08T18:41:09.208Z,20.45
2023-08-08T18:46:10.433Z,20.41
2023-08-08T18:51:11.713Z,20.06
2023-08-08T18:56:13.177Z,19.83
2023-08-08T19:01:14.450Z,19.92
2023-08-08T19:06:15.779Z,20.17
2023-08-08T19:11:17.052Z,20.17
2023-08-08T19:16:18.458Z,20.14
2023-08-08T19:21:20.235Z,20.13
2023-08-08T19:26:22.148Z,19.92
2023-08-08T19:31:23.527Z,19.76
2023-08-08T19:36:24.737Z,18.82
2023-08-08T19:41:26.038Z,18.73
2023-08-08T19:46:27.355Z,18.99
2023-08-08T19:51:31.661Z,19.22
2023-08-08T19:56:32.961Z,19.36
2023-08-08T20:01:34.275Z,19.17
2023-08-08T20:06:36.769Z,19.23
2023-08-08T20:11:42.286Z,19.10
2023-08-08T20:16:43.528Z,18.83
2023-08-08T20:21:44.817Z,18.52
2023-08-08T20:26:46.178Z,18.62
2023-08-08T20:31:47.483Z,18.26
2023-08-08T20:36:49.743Z,18.26
2023-08-08T20:41:50.964Z,17.98
2023-08-08T20:46:52.150Z,18.19
2023-08-08T20:51:53.379Z,17.83
2023-08-08T20:56:54.870Z,17.97
2023-08-08T21:01:56.196Z,17.84
2023-08-08T21:06:57.588Z,18.17
2023-08-08T21:11:58.844Z,18.09
2023-08-08T21:17:00.275Z,18.10
2023-08-08T21:22:01.997Z,18.19
2023-08-08T21:27:04.303Z,18.01
2023-08-08T21:32:05.893Z,17.96
2023-08-08T21:37:07.143Z,17.97
2023-08-08T21:42:09.388Z,18.14
2023-08-08T21:47:10.621Z,18.19
2023-08-08T21:52:11.829Z,18.20
2023-08-08T21:57:13.383Z,18.33
2023-08-08T22:02:16.561Z,18.16
2023-08-08T22:07:18.158Z,17.98
2023-08-08T22:12:19.371Z,17.92
2023-08-08T22:17:20.598Z,18.26
2023-08-08T22:22:21.835Z,18.06
2023-08-08T22:27:23.038Z,18.10
2023-08-08T22:32:24.498Z,18.11
2023-08-08T22:37:25.873Z,18.10
2023-08-08T22:42:27.110Z,18.04
2023-08-08T22:47:28.351Z,17.85
2023-08-08T22:52:29.600Z,17.71
2023-08-08T22:57:30.825Z,17.90
2023-08-08T23:02:32.164Z,17.91
2023-08-08T23:07:33.398Z,17.54
2023-08-08T23:12:34.633Z,17.70
2023-08-08T23:17:35.900Z,17.44
2023-08-08T23:22:37.157Z,17.35
2023-08-08T23:27:38.475Z,17.46
2023-08-08T23:32:44.125Z,17.55
2023-08-08T23:37:47.961Z,17.46
2023-08-08T23:42:49.175Z,17.22
2023-08-08T23:47:50.475Z,17.26
2023-08-08T23:52:51.822Z,17.30
2023-08-08T23:57:53.012Z,17.31
